Carthage, Missouri
Current Conditions -  °F | °C
As of 4:53 PM on Tuesday 25 Nov 2014 (Local Time) from KJLN Reporting Station
Clear Clear  
Wind Chill: 37°   Ceiling: Unl
Heat Index: 41°   Visibility: 10mi
Dew Point: 20°   Wind: 6mph
Humidity: 43%   Direction: 230°SW
Pressure: 30.14"   Gusts: NA
Location:  37.18°N, 94.31°W
Report Text: KJLN 252253Z 23005KT 10SM CLR 05/M07 A3014 RMK AO2 SLP213 T00501067
Loading
Personal Weather Stations






























Interactive Weather Map New forecast layout! Learn more

10-Day Weather Forecast

Advertisements
Track Severe Weather on mobile